createdAt,value
2018-02-11T00:00:30.260Z,7.22
2018-02-11T00:02:58.331Z,7.53
2018-02-11T00:05:26.361Z,5.90
2018-02-11T00:07:54.371Z,5.93
2018-02-11T00:10:22.405Z,5.97
2018-02-11T00:12:50.417Z,6.25
2018-02-11T00:15:18.422Z,7.00
2018-02-11T00:17:46.416Z,6.55
2018-02-11T00:20:14.719Z,6.75
2018-02-11T00:22:42.804Z,7.10
2018-02-11T00:25:10.812Z,7.15
2018-02-11T00:27:38.800Z,8.10
2018-02-11T00:30:06.929Z,7.00
2018-02-11T00:32:34.928Z,5.75
2018-02-11T00:35:02.952Z,6.72
2018-02-11T00:37:36.922Z,6.35
2018-02-11T00:40:04.987Z,6.10
2018-02-11T00:42:32.993Z,5.87
2018-02-11T00:45:01.061Z,7.62
2018-02-11T00:47:29.045Z,6.50
2018-02-11T00:49:57.025Z,6.93
2018-02-11T00:52:25.009Z,7.80
2018-02-11T00:54:53.044Z,6.80
2018-02-11T00:57:21.021Z,6.95
2018-02-11T00:59:49.052Z,6.93
2018-02-11T01:02:17.061Z,6.25
2018-02-11T01:04:45.069Z,6.82
2018-02-11T01:07:13.057Z,6.30
2018-02-11T01:09:41.045Z,6.03
2018-02-11T01:12:09.049Z,6.57
2018-02-11T01:14:37.041Z,6.60
2018-02-11T01:17:05.025Z,5.37
2018-02-11T01:19:33.008Z,6.97
2018-02-11T01:22:00.986Z,7.12
2018-02-11T01:24:29.017Z,6.57
2018-02-11T01:26:57.048Z,6.22
2018-02-11T01:29:25.022Z,6.10
2018-02-11T01:31:53.116Z,6.53
2018-02-11T01:34:21.116Z,6.47
2018-02-11T01:36:49.171Z,5.78
2018-02-11T01:39:17.164Z,5.32
2018-02-11T01:41:45.193Z,6.40
2018-02-11T01:44:28.174Z,6.15
2018-02-11T01:46:56.193Z,7.03
2018-02-11T01:49:24.210Z,7.00
2018-02-11T01:51:52.203Z,5.75
2018-02-11T01:54:20.232Z,6.50
2018-02-11T01:56:48.253Z,5.55
2018-02-11T01:59:16.263Z,6.40
2018-02-11T02:01:44.281Z,6.35
2018-02-11T02:04:12.295Z,7.85
2018-02-11T02:06:40.268Z,6.28
2018-02-11T02:09:08.281Z,6.07
2018-02-11T02:11:36.281Z,5.65
2018-02-11T02:14:04.345Z,5.30
2018-02-11T02:16:32.341Z,6.10
2018-02-11T02:19:00.349Z,5.32
2018-02-11T02:21:28.340Z,5.25
2018-02-11T02:23:56.373Z,8.40
2018-02-11T02:26:24.372Z,6.18
2018-02-11T02:28:52.400Z,5.75
2018-02-11T02:31:20.449Z,5.30
2018-02-11T02:33:49.579Z,5.12
2018-02-11T02:36:17.554Z,6.10
2018-02-11T02:38:45.589Z,6.00
2018-02-11T02:41:13.560Z,5.80
2018-02-11T02:43:41.606Z,5.43
2018-02-11T02:46:09.601Z,7.40
2018-02-11T02:48:37.627Z,5.25
2018-02-11T02:51:05.604Z,6.10
2018-02-11T02:53:33.569Z,5.62
2018-02-11T02:56:02.598Z,5.37
2018-02-11T02:58:30.575Z,5.40
2018-02-11T03:00:58.590Z,5.57
2018-02-11T03:03:26.611Z,6.80
2018-02-11T03:05:54.603Z,7.10
2018-02-11T03:08:23.609Z,6.37
2018-02-11T03:10:51.633Z,5.03
2018-02-11T03:13:19.668Z,6.05
2018-02-11T03:15:47.657Z,6.30
2018-02-11T03:18:15.638Z,5.35
2018-02-11T03:20:43.649Z,5.95
2018-02-11T03:23:11.641Z,6.40
2018-02-11T03:25:39.657Z,5.37
2018-02-11T03:28:07.662Z,4.78
2018-02-11T03:30:35.694Z,5.00
2018-02-11T03:33:03.689Z,6.12
2018-02-11T03:35:31.671Z,6.30
2018-02-11T03:37:59.720Z,5.30
2018-02-11T03:40:27.720Z,4.87
2018-02-11T03:42:55.712Z,5.35
2018-02-11T03:45:23.755Z,4.80
2018-02-11T03:47:51.740Z,5.68
2018-02-11T03:50:19.728Z,4.55
2018-02-11T03:52:47.806Z,4.80
2018-02-11T03:55:15.848Z,5.43
2018-02-11T03:57:43.870Z,5.07
2018-02-11T04:00:11.874Z,4.20
2018-02-11T04:02:39.844Z,4.65
2018-02-11T04:05:07.911Z,5.28
2018-02-11T04:07:35.937Z,4.60
2018-02-11T04:10:03.920Z,5.45
2018-02-11T04:12:31.918Z,4.47
2018-02-11T04:14:59.958Z,4.18
2018-02-11T04:17:28.029Z,5.45
2018-02-11T04:19:56.037Z,4.00
2018-02-11T04:22:24.037Z,4.30
2018-02-11T04:24:52.071Z,4.55
2018-02-11T04:27:20.121Z,3.35
2018-02-11T04:29:48.101Z,4.05
2018-02-11T04:32:16.109Z,4.35
2018-02-11T04:34:44.110Z,4.15
2018-02-11T04:37:12.178Z,5.50
2018-02-11T04:39:40.170Z,4.00
2018-02-11T04:42:08.166Z,4.35
2018-02-11T04:44:36.161Z,4.05
2018-02-11T04:47:04.160Z,4.22
2018-02-11T04:49:32.217Z,3.50
2018-02-11T04:52:00.261Z,4.70
2018-02-11T04:54:28.296Z,4.60
2018-02-11T04:56:56.329Z,3.83
2018-02-11T04:59:24.315Z,4.25
2018-02-11T05:01:52.315Z,4.72
2018-02-11T05:04:20.289Z,5.15
2018-02-11T05:06:48.281Z,5.28
2018-02-11T05:09:16.289Z,4.00
2018-02-11T05:11:44.332Z,3.78
2018-02-11T05:14:12.325Z,4.85
2018-02-11T05:16:40.314Z,4.95
2018-02-11T05:19:08.307Z,3.83
2018-02-11T05:21:36.366Z,5.07
2018-02-11T05:24:04.353Z,5.07
2018-02-11T05:26:32.337Z,4.10
2018-02-11T05:29:00.305Z,6.45
2018-02-11T05:31:28.276Z,4.43
2018-02-11T05:33:56.264Z,4.90
2018-02-11T05:36:24.265Z,4.37
2018-02-11T05:38:52.269Z,5.62
2018-02-11T05:41:20.281Z,5.68
2018-02-11T05:43:48.293Z,5.22
2018-02-11T05:46:16.302Z,7.43
2018-02-11T05:48:44.289Z,6.37
2018-02-11T05:51:12.321Z,4.93
2018-02-11T05:53:40.345Z,5.25
2018-02-11T05:56:08.337Z,6.93
2018-02-11T05:58:36.366Z,6.25
2018-02-11T06:01:04.360Z,6.22
2018-02-11T06:03:32.365Z,5.87
2018-02-11T06:06:00.368Z,6.25
2018-02-11T06:08:28.365Z,7.18
2018-02-11T06:10:56.390Z,7.25
2018-02-11T06:13:24.385Z,7.00
2018-02-11T06:15:52.393Z,5.28
2018-02-11T06:18:20.443Z,8.68
2018-02-11T06:20:48.444Z,7.50
2018-02-11T06:23:16.445Z,8.30
2018-02-11T06:25:45.477Z,5.45
2018-02-11T06:28:13.489Z,7.00
2018-02-11T06:30:41.495Z,7.30
2018-02-11T06:33:09.512Z,7.00
2018-02-11T06:35:37.552Z,7.35
2018-02-11T06:38:05.553Z,7.55
2018-02-11T06:40:33.629Z,7.37
2018-02-11T06:43:01.621Z,7.25
2018-02-11T06:45:29.669Z,6.25
2018-02-11T06:47:57.689Z,7.72
2018-02-11T06:50:25.728Z,7.22
2018-02-11T06:52:53.744Z,7.12
2018-02-11T06:55:21.774Z,7.28
2018-02-11T06:57:49.758Z,7.05
2018-02-11T07:00:17.781Z,7.62
2018-02-11T07:02:45.761Z,5.70
2018-02-11T07:05:13.737Z,7.35
2018-02-11T07:07:41.713Z,6.93
2018-02-11T07:10:09.793Z,8.70
2018-02-11T07:12:38.038Z,9.68
2018-02-11T07:15:06.326Z,7.75
2018-02-11T07:17:34.593Z,8.55
2018-02-11T07:20:02.694Z,8.15
2018-02-11T07:22:30.690Z,8.32
2018-02-11T07:24:58.697Z,9.38
2018-02-11T07:27:26.747Z,8.70
2018-02-11T07:29:54.756Z,10.00
2018-02-11T07:32:22.753Z,10.20
2018-02-11T07:34:51.869Z,8.73
2018-02-11T07:37:19.869Z,10.30
2018-02-11T07:39:47.877Z,8.98
2018-02-11T07:42:15.860Z,8.27
2018-02-11T07:44:43.894Z,10.20
2018-02-11T07:47:11.961Z,8.70
2018-02-11T07:49:40.043Z,9.60
2018-02-11T07:52:08.101Z,11.12
2018-02-11T07:54:36.258Z,10.55
2018-02-11T07:57:04.297Z,10.20
2018-02-11T07:59:32.333Z,9.20
2018-02-11T08:02:00.451Z,11.40
2018-02-11T08:04:28.472Z,11.07
2018-02-11T08:06:56.538Z,10.85
2018-02-11T08:09:24.625Z,9.63
2018-02-11T08:11:52.681Z,8.40
2018-02-11T08:14:20.686Z,10.60
2018-02-11T08:16:48.697Z,9.93
2018-02-11T08:19:16.735Z,10.20
2018-02-11T08:21:44.704Z,11.07
2018-02-11T08:24:12.714Z,10.07
2018-02-11T08:26:40.769Z,11.57
2018-02-11T08:29:08.825Z,10.68
2018-02-11T08:31:36.920Z,10.68
2018-02-11T08:34:05.144Z,9.93
2018-02-11T08:36:33.228Z,10.95
2018-02-11T08:39:01.237Z,8.02
2018-02-11T08:41:29.251Z,9.00
2018-02-11T08:43:57.265Z,9.30
2018-02-11T08:46:25.281Z,7.22
2018-02-11T08:48:53.338Z,8.65
2018-02-11T08:51:21.345Z,7.43
2018-02-11T08:53:49.370Z,7.90
2018-02-11T08:56:17.360Z,7.35
2018-02-11T08:58:45.358Z,8.88
2018-02-11T09:01:13.385Z,9.30
2018-02-11T09:03:41.422Z,8.32
2018-02-11T09:06:09.445Z,7.90
2018-02-11T09:08:37.500Z,8.77
2018-02-11T09:11:05.646Z,9.50
2018-02-11T09:13:33.805Z,8.63
2018-02-11T09:16:02.886Z,8.52
2018-02-11T09:18:30.935Z,7.68
2018-02-11T09:20:58.954Z,7.85
2018-02-11T09:23:26.972Z,6.95
2018-02-11T09:25:55.044Z,7.22
2018-02-11T09:28:23.090Z,5.78
2018-02-11T09:30:51.165Z,5.37
2018-02-11T09:33:19.134Z,5.97
2018-02-11T09:35:47.138Z,3.83
2018-02-11T09:38:15.178Z,2.58
2018-02-11T09:40:43.180Z,3.25
2018-02-11T09:43:11.189Z,2.70
2018-02-11T09:45:39.261Z,2.20
2018-02-11T09:48:07.469Z,3.25
2018-02-11T09:50:36.554Z,2.70
2018-02-11T09:53:04.645Z,2.22
2018-02-11T09:55:32.650Z,2.28
2018-02-11T09:58:00.693Z,2.55
2018-02-11T10:00:28.694Z,2.78
2018-02-11T10:02:56.681Z,2.33
2018-02-11T10:05:24.769Z,1.73
2018-02-11T10:07:52.815Z,1.90
2018-02-11T10:10:20.812Z,2.50
2018-02-11T10:12:48.816Z,2.25
2018-02-11T10:15:16.864Z,1.77
2018-02-11T10:17:44.884Z,1.85
2018-02-11T10:20:12.899Z,1.45
2018-02-11T10:22:41.029Z,1.75
2018-02-11T10:25:09.086Z,1.35
2018-02-11T10:27:37.242Z,1.50
2018-02-11T10:30:05.474Z,1.77
2018-02-11T10:32:33.581Z,1.95
2018-02-11T10:35:01.613Z,1.37
2018-02-11T10:37:29.746Z,1.70
2018-02-11T10:39:57.741Z,1.75
2018-02-11T10:42:25.780Z,1.50
2018-02-11T10:44:53.866Z,1.42
2018-02-11T10:47:21.937Z,1.70
2018-02-11T10:49:49.938Z,1.85
2018-02-11T10:52:17.969Z,1.95
2018-02-11T10:54:45.965Z,1.52
2018-02-11T10:57:14.015Z,2.30
2018-02-11T10:59:42.054Z,1.42
2018-02-11T11:02:10.086Z,1.40
2018-02-11T11:04:38.197Z,1.10
2018-02-11T11:07:06.320Z,1.73
2018-02-11T11:09:34.536Z,1.70
2018-02-11T11:12:02.673Z,1.60
2018-02-11T11:14:30.665Z,1.83
2018-02-11T11:16:58.668Z,2.00
2018-02-11T11:19:26.685Z,1.30
2018-02-11T11:21:54.725Z,1.77
2018-02-11T11:24:22.717Z,1.73
2018-02-11T11:26:50.784Z,1.05
2018-02-11T11:29:18.780Z,1.20
2018-02-11T11:31:46.773Z,1.42
2018-02-11T11:34:14.782Z,1.20
2018-02-11T11:36:42.804Z,1.30
2018-02-11T11:39:10.790Z,1.10
2018-02-11T11:41:38.793Z,1.23
2018-02-11T11:44:06.835Z,1.45
2018-02-11T11:46:34.865Z,1.70
2018-02-11T11:49:03.020Z,1.27
2018-02-11T11:51:32.057Z,1.40
2018-02-11T11:54:00.273Z,1.52
2018-02-11T11:56:28.323Z,1.50
2018-02-11T11:58:56.359Z,1.77
2018-02-11T12:01:24.345Z,1.95
2018-02-11T12:03:52.345Z,1.70
2018-02-11T12:06:20.315Z,1.60
2018-02-11T12:08:48.464Z,2.03
2018-02-11T12:11:16.487Z,1.55
2018-02-11T12:13:44.550Z,1.50
2018-02-11T12:16:12.577Z,1.65
2018-02-11T12:18:40.572Z,1.92
2018-02-11T12:21:08.625Z,1.92
2018-02-11T12:23:36.617Z,1.67
2018-02-11T12:26:04.645Z,2.15
2018-02-11T12:28:32.666Z,1.50
2018-02-11T12:31:00.669Z,1.67
2018-02-11T12:33:28.688Z,1.02
2018-02-11T12:35:56.713Z,1.48
2018-02-11T12:38:24.830Z,1.10
2018-02-11T12:40:52.805Z,1.23
2018-02-11T12:43:20.837Z,1.48
2018-02-11T12:45:48.801Z,1.73
2018-02-11T12:48:16.782Z,1.25
2018-02-11T12:50:44.837Z,1.40
2018-02-11T12:53:13.673Z,1.00
2018-02-11T12:55:41.672Z,1.62
2018-02-11T12:58:09.674Z,1.77
2018-02-11T13:00:37.721Z,1.83
2018-02-11T13:03:05.794Z,1.85
2018-02-11T13:05:33.821Z,1.73
2018-02-11T13:08:01.882Z,2.05
2018-02-11T13:10:29.882Z,1.60
2018-02-11T13:12:57.901Z,1.85
2018-02-11T13:15:25.918Z,1.87
2018-02-11T13:17:53.981Z,1.37
2018-02-11T13:20:21.998Z,2.08
2018-02-11T13:22:49.989Z,2.10
2018-02-11T13:25:18.040Z,1.73
2018-02-11T13:27:46.101Z,1.55
2018-02-11T13:30:14.096Z,1.55
2018-02-11T13:32:42.115Z,2.00
2018-02-11T13:35:10.105Z,2.00
2018-02-11T13:37:38.123Z,1.75
2018-02-11T13:40:06.174Z,1.80
2018-02-11T13:42:34.237Z,1.62
2018-02-11T13:45:02.249Z,1.90
2018-02-11T13:47:30.288Z,2.22
2018-02-11T13:49:58.317Z,2.40
2018-02-11T13:52:26.353Z,2.80
2018-02-11T13:54:54.414Z,2.65
2018-02-11T13:57:22.460Z,2.87
2018-02-11T13:59:50.476Z,2.45
2018-02-11T14:02:18.485Z,3.40
2018-02-11T14:04:46.473Z,2.72
2018-02-11T14:07:14.478Z,3.50
2018-02-11T14:09:42.487Z,3.92
2018-02-11T14:12:10.477Z,4.65
2018-02-11T14:14:38.561Z,4.18
2018-02-11T14:17:06.765Z,4.68
2018-02-11T14:19:34.856Z,2.55
2018-02-11T14:22:02.841Z,4.00
2018-02-11T14:24:30.857Z,3.60
2018-02-11T14:26:59.863Z,4.40
2018-02-11T14:29:27.859Z,3.30
2018-02-11T14:31:55.868Z,3.72
2018-02-11T14:34:23.885Z,3.35
2018-02-11T14:36:51.942Z,3.08
2018-02-11T14:39:19.999Z,2.80
2018-02-11T14:41:48.017Z,2.42
2018-02-11T14:44:16.061Z,2.05
2018-02-11T14:46:44.097Z,2.35
2018-02-11T14:49:12.113Z,2.28
2018-02-11T14:51:40.127Z,1.98
2018-02-11T14:54:08.249Z,2.15
2018-02-11T14:56:36.321Z,1.90
2018-02-11T14:59:04.486Z,1.95
2018-02-11T15:01:32.689Z,1.90
2018-02-11T15:04:00.887Z,2.30
2018-02-11T15:06:28.989Z,2.17
2018-02-11T15:08:58.141Z,2.87
2018-02-11T15:11:26.282Z,2.87
2018-02-11T15:13:54.430Z,2.42
2018-02-11T15:16:22.430Z,3.00
2018-02-11T15:18:50.432Z,2.60
2018-02-11T15:21:18.699Z,2.15
2018-02-11T15:23:46.841Z,2.95
2018-02-11T15:26:14.857Z,2.80
2018-02-11T15:28:42.949Z,2.30
2018-02-11T15:31:11.172Z,3.00
2018-02-11T15:33:39.584Z,2.05
2018-02-11T15:36:08.214Z,2.30
2018-02-11T15:38:36.717Z,2.30
2018-02-11T15:41:05.393Z,2.15
2018-02-11T15:43:34.259Z,2.40
2018-02-11T15:46:02.790Z,2.30
2018-02-11T15:48:31.041Z,2.37
2018-02-11T15:50:59.253Z,2.35
2018-02-11T15:53:27.561Z,2.90
2018-02-11T15:55:55.817Z,2.70
2018-02-11T15:58:23.824Z,2.28
2018-02-11T16:00:51.802Z,2.60
2018-02-11T16:03:19.822Z,2.75
2018-02-11T16:05:47.847Z,3.28
2018-02-11T16:08:15.882Z,2.90
2018-02-11T16:10:43.883Z,3.08
2018-02-11T16:13:11.894Z,3.10
2018-02-11T16:15:39.909Z,2.10
2018-02-11T16:18:07.925Z,2.53
2018-02-11T16:20:35.943Z,3.10
2018-02-11T16:23:03.995Z,2.60
2018-02-11T16:25:32.000Z,3.12
2018-02-11T16:28:01.004Z,3.58
2018-02-11T16:30:29.000Z,1.95
2018-02-11T16:32:56.993Z,3.00
2018-02-11T16:35:24.995Z,3.00
2018-02-11T16:37:52.993Z,2.67
2018-02-11T16:40:21.019Z,3.00
2018-02-11T16:42:49.066Z,2.85
2018-02-11T16:45:17.093Z,3.10
2018-02-11T16:47:46.111Z,3.25
2018-02-11T16:50:14.137Z,2.37
2018-02-11T16:52:42.119Z,2.60
2018-02-11T16:55:10.263Z,2.30
2018-02-11T16:57:38.401Z,3.17
2018-02-11T17:00:06.718Z,2.72
2018-02-11T17:02:35.030Z,2.83
2018-02-11T17:05:03.410Z,2.92
2018-02-11T17:07:31.526Z,2.42
2018-02-11T17:09:59.536Z,2.70
2018-02-11T17:12:27.532Z,2.25
2018-02-11T17:14:55.761Z,2.47
2018-02-11T17:17:24.897Z,2.50
2018-02-11T17:19:52.913Z,1.95
2018-02-11T17:22:20.929Z,2.80
2018-02-11T17:24:48.947Z,2.25
2018-02-11T17:27:16.930Z,2.83
2018-02-11T17:29:44.941Z,1.92
2018-02-11T17:32:12.969Z,2.75
2018-02-11T17:34:41.067Z,2.97
2018-02-11T17:37:09.325Z,3.12
2018-02-11T17:39:37.596Z,4.95
2018-02-11T17:42:06.042Z,3.55
2018-02-11T17:44:34.566Z,5.95
2018-02-11T17:47:02.877Z,4.53
2018-02-11T17:49:30.858Z,4.30
2018-02-11T17:51:58.962Z,3.92
2018-02-11T17:54:27.216Z,3.08
2018-02-11T17:56:55.318Z,2.75
2018-02-11T17:59:23.361Z,3.55
2018-02-11T18:01:51.420Z,2.97
2018-02-11T18:04:19.468Z,3.65
2018-02-11T18:06:47.730Z,3.35
2018-02-11T18:09:15.743Z,2.80
2018-02-11T18:11:44.105Z,2.97
2018-02-11T18:14:12.342Z,3.67
2018-02-11T18:16:40.349Z,2.95
2018-02-11T18:19:08.619Z,3.35
2018-02-11T18:21:36.727Z,3.15
2018-02-11T18:24:04.935Z,4.82
2018-02-11T18:26:33.015Z,3.30
2018-02-11T18:29:01.099Z,3.30
2018-02-11T18:31:29.033Z,3.35
2018-02-11T18:33:56.992Z,4.03
2018-02-11T18:36:25.055Z,4.05
2018-02-11T18:38:53.492Z,4.00
2018-02-11T18:41:21.605Z,5.50
2018-02-11T18:43:49.616Z,4.60
2018-02-11T18:46:17.619Z,5.43
2018-02-11T18:48:45.666Z,5.97
2018-02-11T18:51:13.714Z,5.78
2018-02-11T18:53:41.665Z,5.07
2018-02-11T18:56:09.683Z,4.78
2018-02-11T18:58:37.757Z,4.80
2018-02-11T19:01:05.833Z,4.30
2018-02-11T19:03:35.253Z,4.20
2018-02-11T19:06:03.453Z,3.55
2018-02-11T19:08:31.822Z,3.65
2018-02-11T19:10:59.806Z,4.00
2018-02-11T19:13:27.914Z,3.33
2018-02-11T19:15:55.913Z,3.58
2018-02-11T19:18:23.974Z,3.60
2018-02-11T19:20:51.996Z,3.17
2018-02-11T19:23:20.021Z,3.00
2018-02-11T19:25:48.026Z,3.30
2018-02-11T19:28:16.067Z,3.95
2018-02-11T19:30:44.101Z,4.40
2018-02-11T19:33:12.157Z,4.75
2018-02-11T19:35:41.361Z,5.47
2018-02-11T19:38:10.418Z,6.72
2018-02-11T19:40:38.462Z,6.15
2018-02-11T19:43:06.602Z,6.00
2018-02-11T19:45:36.055Z,5.35
2018-02-11T19:48:04.425Z,7.10
2018-02-11T19:50:32.524Z,4.57
2018-02-11T19:53:01.650Z,5.97
2018-02-11T19:55:29.646Z,4.45
2018-02-11T19:57:57.703Z,4.62
2018-02-11T20:00:25.709Z,4.30
2018-02-11T20:02:53.737Z,5.00
2018-02-11T20:05:23.896Z,3.95
2018-02-11T20:07:53.181Z,3.53
2018-02-11T20:10:21.202Z,3.60
2018-02-11T20:12:49.202Z,4.43
2018-02-11T20:15:17.221Z,3.15
2018-02-11T20:17:45.250Z,4.30
2018-02-11T20:20:13.237Z,4.25
2018-02-11T20:22:41.257Z,6.43
2018-02-11T20:25:09.272Z,3.60
2018-02-11T20:27:37.314Z,4.37
2018-02-11T20:30:06.525Z,3.85
2018-02-11T20:32:34.736Z,3.92
2018-02-11T20:35:02.778Z,3.83
2018-02-11T20:37:30.753Z,3.60
2018-02-11T20:39:58.761Z,4.22
2018-02-11T20:42:26.760Z,4.50
2018-02-11T20:44:54.785Z,3.67
2018-02-11T20:47:22.814Z,3.90
2018-02-11T20:49:50.870Z,5.37
2018-02-11T20:52:18.871Z,4.72
2018-02-11T20:54:46.893Z,4.30
2018-02-11T20:57:14.940Z,4.70
2018-02-11T20:59:42.920Z,4.50
2018-02-11T21:02:10.958Z,4.00
2018-02-11T21:04:38.940Z,4.25
2018-02-11T21:07:06.945Z,4.50
2018-02-11T21:09:35.041Z,4.65
2018-02-11T21:12:03.074Z,5.05
2018-02-11T21:14:31.089Z,4.53
2018-02-11T21:16:59.069Z,3.33
2018-02-11T21:19:27.115Z,4.87
2018-02-11T21:21:55.141Z,4.10
2018-02-11T21:24:23.229Z,4.95
2018-02-11T21:26:51.265Z,5.32
2018-02-11T21:29:19.276Z,3.67
2018-02-11T21:31:47.265Z,4.40
2018-02-11T21:34:15.253Z,3.37
2018-02-11T21:36:43.265Z,4.22
2018-02-11T21:39:11.421Z,5.00
2018-02-11T21:41:39.592Z,4.40
2018-02-11T21:44:07.636Z,4.28
2018-02-11T21:46:35.733Z,5.87
2018-02-11T21:49:03.910Z,3.58
2018-02-11T21:51:31.973Z,4.37
2018-02-11T21:53:59.956Z,4.00
2018-02-11T21:56:27.973Z,5.05
2018-02-11T21:58:56.023Z,3.72
2018-02-11T22:01:24.059Z,3.95
2018-02-11T22:03:52.108Z,4.55
2018-02-11T22:06:20.136Z,4.12
2018-02-11T22:08:48.167Z,4.30
2018-02-11T22:11:16.252Z,4.65
2018-02-11T22:13:44.272Z,5.97
2018-02-11T22:16:12.275Z,5.87
2018-02-11T22:18:40.309Z,4.82
2018-02-11T22:21:08.300Z,4.25
2018-02-11T22:23:36.377Z,4.85
2018-02-11T22:26:04.486Z,4.62
2018-02-11T22:28:32.517Z,3.42
2018-02-11T22:31:00.503Z,5.03
2018-02-11T22:33:28.705Z,4.53
2018-02-11T22:35:56.717Z,4.10
2018-02-11T22:38:24.722Z,4.03
2018-02-11T22:40:52.721Z,3.87
2018-02-11T22:43:20.729Z,3.97
2018-02-11T22:45:49.774Z,3.67
2018-02-11T22:48:17.741Z,3.50
2018-02-11T22:50:45.822Z,4.18
2018-02-11T22:53:13.832Z,3.75
2018-02-11T22:55:41.828Z,3.53
2018-02-11T22:58:09.856Z,4.85
2018-02-11T23:00:37.899Z,4.03
2018-02-11T23:03:05.907Z,3.67
2018-02-11T23:05:33.898Z,4.45
2018-02-11T23:08:01.909Z,4.10
2018-02-11T23:10:30.589Z,3.42
2018-02-11T23:12:59.069Z,4.47
2018-02-11T23:15:27.101Z,3.40
2018-02-11T23:17:55.093Z,4.32
2018-02-11T23:20:23.110Z,3.37
2018-02-11T23:22:53.590Z,3.83
2018-02-11T23:25:21.872Z,3.62
2018-02-11T23:27:49.852Z,4.43
2018-02-11T23:30:17.856Z,3.80
2018-02-11T23:32:45.883Z,2.97
2018-02-11T23:35:13.904Z,4.07
2018-02-11T23:37:41.891Z,3.65
2018-02-11T23:40:09.900Z,4.03
2018-02-11T23:42:37.921Z,3.50
2018-02-11T23:45:05.923Z,4.40
2018-02-11T23:47:33.885Z,3.55
2018-02-11T23:50:01.908Z,4.57
2018-02-11T23:52:29.941Z,4.10
2018-02-11T23:54:57.982Z,3.50
2018-02-11T23:57:27.029Z,3.05
2018-02-11T23:59:55.037Z,3.95
